createdAt,value
2022-08-22T00:00:17.767Z,15.14
2022-08-22T00:02:53.437Z,16.44
2022-08-22T00:06:09.889Z,15.06
2022-08-22T00:09:17.491Z,15.00
2022-08-22T00:12:09.965Z,14.93
2022-08-22T00:15:41.990Z,14.82
2022-08-22T00:18:37.677Z,14.72
2022-08-22T00:21:30.118Z,14.65
2022-08-22T00:24:25.533Z,14.63
2022-08-22T00:27:34.188Z,14.60
2022-08-22T00:30:14.441Z,14.54
2022-08-22T00:33:21.936Z,14.48
2022-08-22T00:36:05.234Z,14.47
2022-08-22T00:38:45.950Z,14.46
2022-08-22T00:42:04.202Z,14.45
2022-08-22T00:45:03.118Z,14.38
2022-08-22T00:47:38.505Z,14.34
2022-08-22T00:51:07.908Z,14.31
2022-08-22T00:53:52.922Z,14.27
2022-08-22T00:57:06.503Z,14.25
2022-08-22T00:59:59.284Z,14.26
2022-08-22T01:03:24.529Z,14.28
2022-08-22T01:06:22.122Z,14.31
2022-08-22T01:09:43.355Z,14.40
2022-08-22T01:12:43.708Z,14.41
2022-08-22T01:15:24.316Z,14.43
2022-08-22T01:19:03.581Z,14.44
2022-08-22T01:23:05.093Z,14.50
2022-08-22T01:26:05.113Z,14.57
2022-08-22T01:29:18.804Z,14.63
2022-08-22T01:33:10.150Z,14.76
2022-08-22T01:36:24.672Z,14.89
2022-08-22T01:39:38.055Z,14.97
2022-08-22T01:42:31.719Z,15.03
2022-08-22T01:45:40.278Z,15.05
2022-08-22T01:48:27.109Z,15.07
2022-08-22T01:51:21.059Z,15.09
2022-08-22T01:54:07.613Z,15.08
2022-08-22T01:56:45.890Z,15.07
2022-08-22T01:59:34.053Z,15.06
2022-08-22T02:03:00.008Z,15.02
2022-08-22T02:05:37.289Z,15.00
2022-08-22T02:08:46.237Z,15.02
2022-08-22T02:11:44.658Z,14.99
2022-08-22T02:14:36.507Z,14.96
2022-08-22T02:17:28.724Z,14.92
2022-08-22T02:20:11.798Z,14.90
2022-08-22T02:23:04.155Z,14.87
2022-08-22T02:25:56.727Z,14.80
2022-08-22T02:29:01.661Z,14.80
2022-08-22T02:31:41.534Z,14.74
2022-08-22T02:34:49.311Z,14.72
2022-08-22T02:37:35.625Z,14.70
2022-08-22T02:40:41.240Z,14.66
2022-08-22T02:43:27.387Z,14.60
2022-08-22T02:46:16.067Z,14.56
2022-08-22T02:49:15.556Z,14.49
2022-08-22T02:52:02.163Z,14.42
2022-08-22T02:54:51.137Z,14.38
2022-08-22T02:57:45.126Z,14.37
2022-08-22T03:00:30.749Z,14.35
2022-08-22T03:03:21.581Z,14.31
2022-08-22T03:06:02.603Z,14.29
2022-08-22T03:08:47.333Z,14.29
2022-08-22T03:11:38.606Z,14.28
2022-08-22T03:14:43.667Z,14.26
2022-08-22T03:17:48.267Z,14.22
2022-08-22T03:20:43.781Z,14.23
2022-08-22T03:23:52.529Z,14.24
2022-08-22T03:26:36.867Z,14.21
2022-08-22T03:29:38.374Z,14.24
2022-08-22T03:32:23.101Z,14.24
2022-08-22T03:35:21.983Z,14.19
2022-08-22T03:37:58.605Z,14.17
2022-08-22T03:41:15.476Z,14.13
2022-08-22T03:44:54.968Z,14.12
2022-08-22T03:48:16.392Z,14.11
2022-08-22T03:51:04.274Z,14.14
2022-08-22T03:54:17.457Z,14.18
2022-08-22T03:57:21.569Z,14.15
2022-08-22T04:00:35.836Z,14.08
2022-08-22T04:04:10.581Z,14.01
2022-08-22T04:07:17.020Z,13.95
2022-08-22T04:10:44.879Z,13.94
2022-08-22T04:13:50.962Z,13.92
2022-08-22T04:17:01.065Z,13.94
2022-08-22T04:20:10.849Z,13.94
2022-08-22T04:23:03.904Z,13.91
2022-08-22T04:26:12.095Z,13.90
2022-08-22T04:28:58.931Z,13.94
2022-08-22T04:31:41.488Z,14.03
2022-08-22T04:34:33.737Z,14.05
2022-08-22T04:37:23.797Z,14.08
2022-08-22T04:40:11.357Z,14.09
2022-08-22T04:42:54.035Z,14.07
2022-08-22T04:45:47.856Z,14.10
2022-08-22T04:48:47.895Z,14.11
2022-08-22T04:51:33.331Z,14.19
2022-08-22T04:55:03.631Z,14.31
2022-08-22T04:58:01.494Z,14.46
2022-08-22T05:00:49.435Z,14.61
2022-08-22T05:03:23.581Z,14.73
2022-08-22T05:05:55.611Z,14.92
2022-08-22T05:08:31.840Z,15.08
2022-08-22T05:11:05.652Z,15.18
2022-08-22T05:13:48.339Z,15.28
2022-08-22T05:16:25.782Z,15.40
2022-08-22T05:19:06.278Z,15.52
2022-08-22T05:21:41.075Z,15.62
2022-08-22T05:24:22.845Z,15.68
2022-08-22T05:27:05.327Z,15.69
2022-08-22T05:29:33.602Z,15.72
2022-08-22T05:32:12.120Z,15.88
2022-08-22T05:34:46.065Z,16.04
2022-08-22T05:37:20.509Z,16.27
2022-08-22T05:39:56.773Z,16.57
2022-08-22T05:42:37.238Z,16.85
2022-08-22T05:45:12.243Z,17.22
2022-08-22T05:47:52.649Z,17.55
2022-08-22T05:50:43.441Z,17.78
2022-08-22T05:53:39.654Z,18.04
2022-08-22T05:56:37.432Z,18.21
2022-08-22T05:59:35.177Z,18.42
2022-08-22T06:02:39.010Z,18.86
2022-08-22T06:05:11.873Z,19.39
2022-08-22T06:07:50.961Z,19.82
2022-08-22T06:10:44.733Z,20.19
2022-08-22T06:13:47.384Z,20.64
2022-08-22T06:16:29.929Z,21.06
2022-08-22T06:18:59.161Z,21.30
2022-08-22T06:21:39.599Z,21.57
2022-08-22T06:24:16.725Z,21.80
2022-08-22T06:26:51.053Z,22.10
2022-08-22T06:29:42.488Z,22.23
2022-08-22T06:32:44.513Z,22.35
2022-08-22T06:35:55.620Z,21.99
2022-08-22T06:38:33.495Z,22.27
2022-08-22T06:41:08.780Z,22.23
2022-08-22T06:43:43.928Z,22.43
2022-08-22T06:46:17.272Z,22.55
2022-08-22T06:48:46.140Z,22.56
2022-08-22T06:51:18.932Z,22.08
2022-08-22T06:53:53.789Z,22.65
2022-08-22T06:56:29.570Z,23.03
2022-08-22T06:59:03.022Z,23.47
2022-08-22T07:02:24.850Z,23.81
2022-08-22T07:04:52.919Z,23.51
2022-08-22T07:07:26.877Z,23.28
2022-08-22T07:09:57.450Z,23.69
2022-08-22T07:12:37.783Z,23.72
2022-08-22T07:15:43.173Z,24.05
2022-08-22T07:18:23.434Z,23.64
2022-08-22T07:20:57.174Z,23.28
2022-08-22T07:23:48.032Z,23.28
2022-08-22T07:26:49.724Z,22.64
2022-08-22T07:29:48.313Z,22.86
2022-08-22T07:32:42.019Z,21.93
2022-08-22T07:35:41.985Z,21.18
2022-08-22T07:38:43.826Z,21.07
2022-08-22T07:41:40.658Z,20.68
2022-08-22T07:44:24.324Z,21.25
2022-08-22T07:47:08.645Z,21.92
2022-08-22T07:50:04.859Z,22.81
2022-08-22T07:52:44.936Z,22.49
2022-08-22T07:55:28.958Z,22.01
2022-08-22T07:58:04.552Z,22.01
2022-08-22T08:00:33.912Z,22.15
2022-08-22T08:03:09.291Z,22.63
2022-08-22T08:05:42.986Z,21.85
2022-08-22T08:08:26.510Z,22.49
2022-08-22T08:10:59.723Z,22.24
2022-08-22T08:13:41.170Z,22.52
2022-08-22T08:16:19.735Z,23.35
2022-08-22T08:18:52.651Z,23.87
2022-08-22T08:21:49.334Z,24.57
2022-08-22T08:24:28.961Z,24.78
2022-08-22T08:27:34.717Z,24.92
2022-08-22T08:30:15.698Z,23.97
2022-08-22T08:32:57.512Z,24.50
2022-08-22T08:36:03.459Z,24.54
2022-08-22T08:39:15.667Z,24.23
2022-08-22T08:42:19.005Z,24.27
2022-08-22T08:45:33.470Z,24.37
2022-08-22T08:48:44.818Z,25.21
2022-08-22T08:51:56.240Z,24.65
2022-08-22T08:55:21.963Z,24.82
2022-08-22T08:58:18.061Z,25.14
2022-08-22T09:01:02.787Z,25.18
2022-08-22T09:04:22.682Z,23.58
2022-08-22T09:07:38.908Z,23.43
2022-08-22T09:10:39.164Z,23.76
2022-08-22T09:13:37.592Z,24.68
2022-08-22T09:17:05.489Z,25.49
2022-08-22T09:20:30.492Z,24.55
2022-08-22T09:23:33.502Z,23.74
2022-08-22T09:26:22.828Z,23.64
2022-08-22T09:29:08.747Z,23.51
2022-08-22T09:32:33.783Z,23.49
2022-08-22T09:35:43.948Z,23.59
2022-08-22T09:38:48.280Z,23.42
2022-08-22T09:41:37.444Z,23.50
2022-08-22T09:44:53.601Z,23.05
2022-08-22T09:47:39.808Z,23.01
2022-08-22T09:50:24.563Z,22.89
2022-08-22T09:53:43.719Z,22.57
2022-08-22T09:56:30.782Z,22.51
2022-08-22T09:59:22.314Z,22.36
2022-08-22T10:02:43.601Z,22.19
2022-08-22T10:05:40.770Z,21.94
2022-08-22T10:08:38.101Z,22.09
2022-08-22T10:11:56.025Z,22.21
2022-08-22T10:15:11.245Z,22.04
2022-08-22T10:18:05.150Z,21.88
2022-08-22T10:21:18.999Z,21.77
2022-08-22T10:24:11.251Z,21.71
2022-08-22T10:27:01.129Z,21.67
2022-08-22T10:30:13.298Z,21.67
2022-08-22T10:33:13.179Z,21.68
2022-08-22T10:36:11.717Z,21.63
2022-08-22T10:38:55.386Z,21.50
2022-08-22T10:41:47.390Z,21.55
2022-08-22T10:45:37.272Z,21.65
2022-08-22T10:48:08.999Z,21.55
2022-08-22T10:50:50.021Z,21.51
2022-08-22T10:53:46.189Z,21.49
2022-08-22T10:56:27.623Z,21.43
2022-08-22T10:59:10.832Z,21.39
2022-08-22T11:02:17.509Z,21.27
2022-08-22T11:05:24.151Z,21.22
2022-08-22T11:08:36.867Z,21.04
2022-08-22T11:11:32.529Z,20.93
2022-08-22T11:14:27.420Z,21.05
2022-08-22T11:17:27.876Z,20.98
2022-08-22T11:20:28.080Z,20.74
2022-08-22T11:23:50.979Z,21.01
2022-08-22T11:26:47.977Z,21.15
2022-08-22T11:29:55.095Z,21.16
2022-08-22T11:33:04.484Z,21.37
2022-08-22T11:35:54.730Z,21.46
2022-08-22T11:38:56.246Z,21.07
2022-08-22T11:41:54.073Z,22.21
2022-08-22T11:44:50.189Z,23.11
2022-08-22T11:47:31.429Z,24.21
2022-08-22T11:50:38.656Z,24.03
2022-08-22T11:53:27.815Z,24.63
2022-08-22T11:56:36.721Z,23.60
2022-08-22T11:59:56.174Z,23.40
2022-08-22T12:03:12.914Z,22.98
2022-08-22T12:05:54.798Z,21.65
2022-08-22T12:08:29.345Z,21.87
2022-08-22T12:11:44.756Z,22.01
2022-08-22T12:14:54.887Z,22.12
2022-08-22T12:18:20.136Z,21.93
2022-08-22T12:21:49.567Z,21.62
2022-08-22T12:25:14.255Z,21.91
2022-08-22T12:28:23.411Z,21.82
2022-08-22T12:31:12.176Z,21.83
2022-08-22T12:34:14.824Z,21.90
2022-08-22T12:37:52.235Z,21.94
2022-08-22T12:41:07.973Z,21.82
2022-08-22T12:43:50.557Z,22.02
2022-08-22T12:46:47.366Z,21.96
2022-08-22T12:49:52.634Z,21.87
2022-08-22T12:53:24.499Z,22.15
2022-08-22T12:56:29.327Z,22.27
2022-08-22T12:59:32.284Z,22.38
2022-08-22T13:02:23.579Z,22.21
2022-08-22T13:04:59.373Z,22.14
2022-08-22T13:07:39.395Z,22.30
2022-08-22T13:10:17.542Z,22.31
2022-08-22T13:12:52.707Z,22.37
2022-08-22T13:15:36.089Z,22.29
2022-08-22T13:18:29.658Z,22.36
2022-08-22T13:21:09.399Z,22.52
2022-08-22T13:23:50.791Z,22.56
2022-08-22T13:26:34.087Z,22.32
2022-08-22T13:29:26.179Z,22.14
2022-08-22T13:32:04.453Z,22.35
2022-08-22T13:34:47.382Z,22.35
2022-08-22T13:37:28.622Z,22.48
2022-08-22T13:40:07.203Z,22.57
2022-08-22T13:42:50.781Z,22.61
2022-08-22T13:45:31.310Z,22.68
2022-08-22T13:48:12.702Z,22.74
2022-08-22T13:51:17.635Z,22.75
2022-08-22T13:54:13.786Z,22.62
2022-08-22T13:57:21.023Z,22.82
2022-08-22T14:00:48.782Z,22.85
2022-08-22T14:03:41.094Z,22.71
2022-08-22T14:06:38.055Z,22.92
2022-08-22T14:09:37.947Z,23.15
2022-08-22T14:12:28.730Z,23.31
2022-08-22T14:15:07.948Z,23.40
2022-08-22T14:17:48.394Z,23.15
2022-08-22T14:20:32.218Z,23.18
2022-08-22T14:23:29.261Z,23.12
2022-08-22T14:25:57.756Z,23.41
2022-08-22T14:28:35.696Z,23.50
2022-08-22T14:31:14.381Z,23.94
2022-08-22T14:33:57.623Z,24.10
2022-08-22T14:37:06.199Z,24.63
2022-08-22T14:39:49.024Z,24.96
2022-08-22T14:42:30.813Z,25.29
2022-08-22T14:45:19.457Z,24.92
2022-08-22T14:48:30.921Z,24.70
2022-08-22T14:51:10.189Z,24.56
2022-08-22T14:53:40.415Z,23.96
2022-08-22T14:56:22.515Z,23.66
2022-08-22T14:59:39.793Z,23.74
2022-08-22T15:02:34.577Z,22.76
2022-08-22T15:05:21.458Z,22.62
2022-08-22T15:08:05.312Z,22.51
2022-08-22T15:10:34.313Z,22.41
2022-08-22T15:13:09.857Z,22.73
2022-08-22T15:15:53.534Z,22.81
2022-08-22T15:18:28.773Z,22.78
2022-08-22T15:21:11.345Z,23.09
2022-08-22T15:23:47.161Z,23.67
2022-08-22T15:26:50.435Z,23.27
2022-08-22T15:29:26.921Z,22.99
2022-08-22T15:32:03.165Z,22.71
2022-08-22T15:34:44.559Z,22.82
2022-08-22T15:37:20.582Z,22.25
2022-08-22T15:40:27.435Z,22.14
2022-08-22T15:43:02.506Z,21.98
2022-08-22T15:45:36.076Z,21.79
2022-08-22T15:48:09.474Z,21.74
2022-08-22T15:51:10.155Z,21.50
2022-08-22T15:54:16.148Z,21.87
2022-08-22T15:57:10.038Z,22.34
2022-08-22T15:59:54.130Z,22.36
2022-08-22T16:02:53.995Z,22.52
2022-08-22T16:05:55.806Z,22.68
2022-08-22T16:08:44.169Z,22.50
2022-08-22T16:11:38.148Z,22.75
2022-08-22T16:14:50.729Z,23.27
2022-08-22T16:17:29.553Z,23.25
2022-08-22T16:20:19.760Z,23.07
2022-08-22T16:22:58.887Z,23.27
2022-08-22T16:25:50.230Z,23.53
2022-08-22T16:28:41.437Z,23.67
2022-08-22T16:31:35.997Z,23.48
2022-08-22T16:34:18.727Z,23.24
2022-08-22T16:37:46.308Z,23.16
2022-08-22T16:40:26.941Z,23.14
2022-08-22T16:43:20.341Z,22.97
2022-08-22T16:45:48.839Z,22.98
2022-08-22T16:48:39.480Z,23.17
2022-08-22T16:51:15.155Z,23.42
2022-08-22T16:54:55.781Z,22.94
2022-08-22T16:58:06.360Z,22.65
2022-08-22T17:00:36.189Z,22.70
2022-08-22T17:03:32.458Z,22.44
2022-08-22T17:06:28.428Z,22.33
2022-08-22T17:09:24.671Z,22.34
2022-08-22T17:12:58.377Z,22.18
2022-08-22T17:15:51.785Z,21.75
2022-08-22T17:18:49.429Z,21.34
2022-08-22T17:21:56.587Z,21.09
2022-08-22T17:24:40.425Z,20.95
2022-08-22T17:27:30.331Z,20.80
2022-08-22T17:30:09.863Z,20.57
2022-08-22T17:33:19.984Z,20.51
2022-08-22T17:36:27.100Z,20.48
2022-08-22T17:39:43.190Z,20.47
2022-08-22T17:43:01.156Z,20.29
2022-08-22T17:46:01.793Z,20.32
2022-08-22T17:48:52.486Z,20.29
2022-08-22T17:51:43.216Z,20.19
2022-08-22T17:54:52.516Z,20.08
2022-08-22T17:57:33.293Z,20.09
2022-08-22T18:00:30.080Z,19.98
2022-08-22T18:03:37.623Z,19.91
2022-08-22T18:06:12.248Z,19.86
2022-08-22T18:09:16.562Z,19.76
2022-08-22T18:12:06.606Z,19.72
2022-08-22T18:15:25.334Z,19.66
2022-08-22T18:18:18.319Z,19.65
2022-08-22T18:21:00.586Z,19.60
2022-08-22T18:26:48.811Z,19.47
2022-08-22T18:29:41.765Z,19.40
2022-08-22T18:32:21.004Z,19.39
2022-08-22T18:35:15.219Z,19.28
2022-08-22T18:38:20.026Z,19.23
2022-08-22T18:41:09.532Z,19.20
2022-08-22T18:43:45.059Z,19.17
2022-08-22T18:46:52.439Z,19.13
2022-08-22T18:49:21.978Z,19.06
2022-08-22T18:52:09.902Z,19.01
2022-08-22T18:55:39.101Z,18.99
2022-08-22T18:58:28.116Z,18.95
2022-08-22T19:01:32.391Z,18.92
2022-08-22T19:04:34.405Z,18.85
2022-08-22T19:07:53.729Z,18.84
2022-08-22T19:11:01.073Z,18.79
2022-08-22T19:14:18.378Z,18.78
2022-08-22T19:17:59.575Z,18.77
2022-08-22T19:20:55.400Z,18.78
2022-08-22T19:23:43.574Z,18.76
2022-08-22T19:26:33.493Z,18.75
2022-08-22T19:29:16.002Z,18.76
2022-08-22T19:31:52.958Z,18.66
2022-08-22T19:34:29.141Z,18.64
2022-08-22T19:37:32.100Z,18.67
2022-08-22T19:40:48.314Z,18.60
2022-08-22T19:43:30.141Z,18.61
2022-08-22T19:46:03.890Z,18.64
2022-08-22T19:48:48.294Z,18.59
2022-08-22T19:51:21.123Z,18.61
2022-08-22T19:54:25.112Z,18.56
2022-08-22T19:57:46.183Z,18.58
2022-08-22T20:00:22.704Z,18.62
2022-08-22T20:03:49.849Z,18.60
2022-08-22T20:07:00.469Z,18.61
2022-08-22T20:09:48.683Z,18.57
2022-08-22T20:12:49.843Z,18.56
2022-08-22T20:15:25.466Z,18.58
2022-08-22T20:26:22.256Z,18.59
2022-08-22T20:28:52.506Z,18.57
2022-08-22T20:31:27.259Z,18.57
2022-08-22T20:34:23.150Z,18.62
2022-08-22T20:39:59.166Z,18.67
2022-08-22T20:45:18.562Z,18.73
2022-08-22T20:47:50.737Z,18.73
2022-08-22T20:50:25.765Z,18.75
2022-08-22T20:53:20.147Z,18.79
2022-08-22T20:55:54.955Z,18.80
2022-08-22T20:58:28.645Z,18.82
2022-08-22T21:01:00.472Z,18.84
2022-08-22T21:03:50.616Z,18.80
2022-08-22T21:06:35.010Z,18.80
2022-08-22T21:09:40.358Z,18.77
2022-08-22T21:12:09.474Z,18.77
2022-08-22T21:17:34.240Z,18.75
2022-08-22T21:20:23.112Z,18.71
2022-08-22T21:22:50.683Z,18.73
2022-08-22T21:25:17.638Z,18.71
2022-08-22T21:27:49.981Z,18.70
2022-08-22T21:30:28.158Z,18.63
2022-08-22T21:32:56.591Z,18.62
2022-08-22T21:35:32.790Z,18.66
2022-08-22T21:38:02.118Z,18.66
2022-08-22T21:40:37.607Z,18.66
2022-08-22T21:43:34.201Z,18.66
2022-08-22T21:46:01.154Z,18.66
2022-08-22T21:48:56.486Z,18.69
2022-08-22T21:51:45.949Z,18.67
2022-08-22T21:54:42.239Z,18.66
2022-08-22T21:57:08.822Z,18.68
2022-08-22T21:59:51.540Z,18.67
2022-08-22T22:02:42.396Z,18.66
2022-08-22T22:05:18.150Z,18.68
2022-08-22T22:07:47.717Z,18.70
2022-08-22T22:10:21.012Z,18.68
2022-08-22T22:12:52.072Z,18.69
2022-08-22T22:15:25.817Z,18.73
2022-08-22T22:17:53.573Z,18.73
2022-08-22T22:20:23.992Z,18.73
2022-08-22T22:22:51.066Z,18.72
2022-08-22T22:25:41.034Z,18.68
2022-08-22T22:28:25.655Z,18.68
2022-08-22T22:30:53.396Z,18.67
2022-08-22T22:33:31.543Z,18.64
2022-08-22T22:36:13.077Z,18.62
2022-08-22T22:38:41.206Z,18.59
2022-08-22T22:41:08.805Z,18.57
2022-08-22T22:43:36.119Z,18.56
2022-08-22T22:46:03.016Z,18.56
2022-08-22T22:48:29.858Z,18.55
2022-08-22T22:50:56.597Z,18.56
2022-08-22T22:53:37.981Z,18.54
2022-08-22T22:56:10.529Z,18.50
2022-08-22T22:58:40.630Z,18.48
2022-08-22T23:01:22.478Z,18.44
2022-08-22T23:04:04.869Z,18.42
2022-08-22T23:06:33.134Z,18.36
2022-08-22T23:08:59.914Z,18.34
2022-08-22T23:11:30.380Z,18.27
2022-08-22T23:13:57.544Z,18.27
2022-08-22T23:16:28.760Z,18.26
2022-08-22T23:18:56.572Z,18.28
2022-08-22T23:21:29.575Z,18.24
2022-08-22T23:24:00.833Z,18.24
2022-08-22T23:26:29.709Z,18.23
2022-08-22T23:28:58.213Z,18.26
2022-08-22T23:31:34.339Z,18.24
2022-08-22T23:34:21.609Z,18.15
2022-08-22T23:36:54.577Z,18.17
2022-08-22T23:39:25.823Z,18.16
2022-08-22T23:41:53.355Z,18.14
2022-08-22T23:44:31.701Z,18.10
2022-08-22T23:47:00.964Z,18.09
2022-08-22T23:49:30.100Z,18.07
2022-08-22T23:51:58.323Z,18.08
2022-08-22T23:54:26.619Z,18.07
2022-08-22T23:57:00.687Z,18.03
2022-08-22T23:59:34.882Z,17.96
